sensor_id;sensor_type;location;lat;lon;timestamp;temperature;humidity
1686;DHT22;840;47.980;7.830;2023-06-14T00:00:44;19.40;41.50
1686;DHT22;840;47.980;7.830;2023-06-14T00:03:16;19.40;41.10
1686;DHT22;840;47.980;7.830;2023-06-14T00:05:43;19.40;41.30
1686;DHT22;840;47.980;7.830;2023-06-14T00:08:12;19.30;41.40
1686;DHT22;840;47.980;7.830;2023-06-14T00:10:39;19.30;41.80
1686;DHT22;840;47.980;7.830;2023-06-14T00:13:08;19.20;41.90
1686;DHT22;840;47.980;7.830;2023-06-14T00:15:36;19.20;42.00
1686;DHT22;840;47.980;7.830;2023-06-14T00:18:03;19.20;42.10
1686;DHT22;840;47.980;7.830;2023-06-14T00:20:32;19.10;42.30
1686;DHT22;840;47.980;7.830;2023-06-14T00:22:59;19.10;42.40
1686;DHT22;840;47.980;7.830;2023-06-14T00:25:26;19.10;42.50
1686;DHT22;840;47.980;7.830;2023-06-14T00:27:53;19.10;42.60
1686;DHT22;840;47.980;7.830;2023-06-14T00:30:21;19.00;42.50
1686;DHT22;840;47.980;7.830;2023-06-14T00:32:48;19.00;42.60
1686;DHT22;840;47.980;7.830;2023-06-14T00:35:16;19.00;42.50
1686;DHT22;840;47.980;7.830;2023-06-14T00:37:44;19.00;42.60
1686;DHT22;840;47.980;7.830;2023-06-14T00:40:11;19.00;42.60
1686;DHT22;840;47.980;7.830;2023-06-14T00:42:37;19.00;43.10
1686;DHT22;840;47.980;7.830;2023-06-14T00:45:05;18.90;43.20
1686;DHT22;840;47.980;7.830;2023-06-14T00:47:33;18.90;43.10
1686;DHT22;840;47.980;7.830;2023-06-14T00:50:02;18.80;43.50
1686;DHT22;840;47.980;7.830;2023-06-14T00:52:28;18.80;43.80
1686;DHT22;840;47.980;7.830;2023-06-14T00:54:57;18.70;43.70
1686;DHT22;840;47.980;7.830;2023-06-14T00:57:24;18.70;44.00
1686;DHT22;840;47.980;7.830;2023-06-14T00:59:51;18.70;43.60
1686;DHT22;840;47.980;7.830;2023-06-14T01:02:18;18.60;43.80
1686;DHT22;840;47.980;7.830;2023-06-14T01:04:47;18.60;44.00
1686;DHT22;840;47.980;7.830;2023-06-14T01:07:21;18.60;44.10
1686;DHT22;840;47.980;7.830;2023-06-14T01:10:02;18.60;44.20
1686;DHT22;840;47.980;7.830;2023-06-14T01:12:35;18.60;44.30
1686;DHT22;840;47.980;7.830;2023-06-14T01:15:04;18.50;44.50
1686;DHT22;840;47.980;7.830;2023-06-14T01:17:31;18.50;44.90
1686;DHT22;840;47.980;7.830;2023-06-14T01:20:01;18.50;45.00
1686;DHT22;840;47.980;7.830;2023-06-14T01:22:28;18.50;45.00
1686;DHT22;840;47.980;7.830;2023-06-14T01:24:57;18.40;45.20
1686;DHT22;840;47.980;7.830;2023-06-14T01:27:26;18.40;45.60
1686;DHT22;840;47.980;7.830;2023-06-14T01:29:55;18.40;45.80
1686;DHT22;840;47.980;7.830;2023-06-14T01:32:23;18.30;46.30
1686;DHT22;840;47.980;7.830;2023-06-14T01:34:51;18.20;46.40
1686;DHT22;840;47.980;7.830;2023-06-14T01:37:18;18.10;47.00
1686;DHT22;840;47.980;7.830;2023-06-14T01:39:46;18.10;47.20
1686;DHT22;840;47.980;7.830;2023-06-14T01:42:16;17.90;47.20
1686;DHT22;840;47.980;7.830;2023-06-14T01:44:44;17.90;47.90
1686;DHT22;840;47.980;7.830;2023-06-14T01:47:12;17.80;47.90
1686;DHT22;840;47.980;7.830;2023-06-14T01:49:39;17.80;47.80
1686;DHT22;840;47.980;7.830;2023-06-14T01:52:06;17.70;48.10
1686;DHT22;840;47.980;7.830;2023-06-14T01:54:35;17.70;48.50
1686;DHT22;840;47.980;7.830;2023-06-14T01:57:03;17.60;48.40
1686;DHT22;840;47.980;7.830;2023-06-14T01:59:33;17.60;49.00
1686;DHT22;840;47.980;7.830;2023-06-14T02:02:02;17.60;48.60
1686;DHT22;840;47.980;7.830;2023-06-14T02:04:29;17.60;48.80
1686;DHT22;840;47.980;7.830;2023-06-14T02:06:56;17.60;48.40
1686;DHT22;840;47.980;7.830;2023-06-14T02:09:22;17.60;48.40
1686;DHT22;840;47.980;7.830;2023-06-14T02:11:50;17.60;48.40
1686;DHT22;840;47.980;7.830;2023-06-14T02:14:16;17.50;48.80
1686;DHT22;840;47.980;7.830;2023-06-14T02:16:45;17.50;49.20
1686;DHT22;840;47.980;7.830;2023-06-14T02:19:14;17.40;49.70
1686;DHT22;840;47.980;7.830;2023-06-14T02:21:41;17.40;50.30
1686;DHT22;840;47.980;7.830;2023-06-14T02:24:08;17.30;50.20
1686;DHT22;840;47.980;7.830;2023-06-14T02:26:35;17.30;50.20
1686;DHT22;840;47.980;7.830;2023-06-14T02:29:03;17.30;49.90
1686;DHT22;840;47.980;7.830;2023-06-14T02:31:30;17.30;50.10
1686;DHT22;840;47.980;7.830;2023-06-14T02:33:59;17.30;50.00
1686;DHT22;840;47.980;7.830;2023-06-14T02:36:26;17.30;50.30
1686;DHT22;840;47.980;7.830;2023-06-14T02:38:53;17.20;50.00
1686;DHT22;840;47.980;7.830;2023-06-14T02:41:20;17.20;50.10
1686;DHT22;840;47.980;7.830;2023-06-14T02:43:47;17.10;50.40
1686;DHT22;840;47.980;7.830;2023-06-14T02:46:14;17.00;50.60
1686;DHT22;840;47.980;7.830;2023-06-14T02:48:41;17.00;50.70
1686;DHT22;840;47.980;7.830;2023-06-14T02:51:09;16.90;51.00
1686;DHT22;840;47.980;7.830;2023-06-14T02:53:35;16.80;51.10
1686;DHT22;840;47.980;7.830;2023-06-14T02:56:02;16.80;51.60
1686;DHT22;840;47.980;7.830;2023-06-14T02:58:30;16.70;52.00
1686;DHT22;840;47.980;7.830;2023-06-14T03:00:58;16.70;52.10
1686;DHT22;840;47.980;7.830;2023-06-14T03:03:28;16.60;52.20
1686;DHT22;840;47.980;7.830;2023-06-14T03:05:55;16.60;52.40
1686;DHT22;840;47.980;7.830;2023-06-14T03:08:23;16.50;53.00
1686;DHT22;840;47.980;7.830;2023-06-14T03:10:55;16.50;53.20
1686;DHT22;840;47.980;7.830;2023-06-14T03:13:22;16.50;53.10
1686;DHT22;840;47.980;7.830;2023-06-14T03:15:49;16.50;52.80
1686;DHT22;840;47.980;7.830;2023-06-14T03:18:17;16.40;52.90
1686;DHT22;840;47.980;7.830;2023-06-14T03:20:44;16.40;53.20
1686;DHT22;840;47.980;7.830;2023-06-14T03:23:12;16.40;53.50
1686;DHT22;840;47.980;7.830;2023-06-14T03:25:40;16.40;53.10
1686;DHT22;840;47.980;7.830;2023-06-14T03:28:07;16.40;53.40
1686;DHT22;840;47.980;7.830;2023-06-14T03:30:34;16.30;53.60
1686;DHT22;840;47.980;7.830;2023-06-14T03:33:01;16.30;53.50
1686;DHT22;840;47.980;7.830;2023-06-14T03:35:28;16.30;53.50
1686;DHT22;840;47.980;7.830;2023-06-14T03:37:55;16.30;53.80
1686;DHT22;840;47.980;7.830;2023-06-14T03:40:22;16.30;53.80
1686;DHT22;840;47.980;7.830;2023-06-14T03:42:53;16.30;53.70
1686;DHT22;840;47.980;7.830;2023-06-14T03:45:20;16.30;53.50
1686;DHT22;840;47.980;7.830;2023-06-14T03:47:47;16.30;53.50
1686;DHT22;840;47.980;7.830;2023-06-14T03:50:14;16.30;53.70
1686;DHT22;840;47.980;7.830;2023-06-14T03:52:40;16.30;53.80
1686;DHT22;840;47.980;7.830;2023-06-14T03:55:09;16.30;53.80
1686;DHT22;840;47.980;7.830;2023-06-14T03:57:38;16.30;54.00
1686;DHT22;840;47.980;7.830;2023-06-14T04:00:08;16.30;53.50
1686;DHT22;840;47.980;7.830;2023-06-14T04:02:35;16.30;54.20
1686;DHT22;840;47.980;7.830;2023-06-14T04:05:03;16.30;53.70
1686;DHT22;840;47.980;7.830;2023-06-14T04:07:30;16.30;53.70
1686;DHT22;840;47.980;7.830;2023-06-14T04:09:57;16.30;54.30
1686;DHT22;840;47.980;7.830;2023-06-14T04:12:24;16.20;54.00
1686;DHT22;840;47.980;7.830;2023-06-14T04:14:51;16.20;54.00
1686;DHT22;840;47.980;7.830;2023-06-14T04:17:19;16.20;54.30
1686;DHT22;840;47.980;7.830;2023-06-14T04:19:46;16.20;54.50
1686;DHT22;840;47.980;7.830;2023-06-14T04:22:14;16.20;54.50
1686;DHT22;840;47.980;7.830;2023-06-14T04:24:41;16.20;54.40
1686;DHT22;840;47.980;7.830;2023-06-14T04:27:08;16.10;54.40
1686;DHT22;840;47.980;7.830;2023-06-14T04:29:34;16.10;54.50
1686;DHT22;840;47.980;7.830;2023-06-14T04:32:01;16.10;55.10
1686;DHT22;840;47.980;7.830;2023-06-14T04:34:29;16.20;55.50
1686;DHT22;840;47.980;7.830;2023-06-14T04:36:59;16.20;55.50
1686;DHT22;840;47.980;7.830;2023-06-14T04:39:26;16.30;55.50
1686;DHT22;840;47.980;7.830;2023-06-14T04:41:54;16.30;55.30
1686;DHT22;840;47.980;7.830;2023-06-14T04:44:23;16.40;55.50
1686;DHT22;840;47.980;7.830;2023-06-14T04:46:56;16.50;55.90
1686;DHT22;840;47.980;7.830;2023-06-14T04:49:24;16.60;55.90
1686;DHT22;840;47.980;7.830;2023-06-14T04:51:56;16.70;56.10
1686;DHT22;840;47.980;7.830;2023-06-14T04:54:24;16.80;55.90
1686;DHT22;840;47.980;7.830;2023-06-14T04:56:51;16.90;55.60
1686;DHT22;840;47.980;7.830;2023-06-14T04:59:18;16.90;55.80
1686;DHT22;840;47.980;7.830;2023-06-14T05:01:45;17.00;56.20
1686;DHT22;840;47.980;7.830;2023-06-14T05:04:13;17.00;56.00
1686;DHT22;840;47.980;7.830;2023-06-14T05:06:40;17.10;55.80
1686;DHT22;840;47.980;7.830;2023-06-14T05:09:08;17.10;55.40
1686;DHT22;840;47.980;7.830;2023-06-14T05:11:35;17.10;55.60
1686;DHT22;840;47.980;7.830;2023-06-14T05:14:02;17.20;56.20
1686;DHT22;840;47.980;7.830;2023-06-14T05:16:29;17.20;55.80
1686;DHT22;840;47.980;7.830;2023-06-14T05:18:56;17.20;56.10
1686;DHT22;840;47.980;7.830;2023-06-14T05:21:23;17.30;55.80
1686;DHT22;840;47.980;7.830;2023-06-14T05:23:50;17.30;55.90
1686;DHT22;840;47.980;7.830;2023-06-14T05:26:19;17.30;55.70
1686;DHT22;840;47.980;7.830;2023-06-14T05:28:45;17.30;55.50
1686;DHT22;840;47.980;7.830;2023-06-14T05:31:12;17.30;56.50
1686;DHT22;840;47.980;7.830;2023-06-14T05:33:39;17.30;56.90
1686;DHT22;840;47.980;7.830;2023-06-14T05:36:06;17.30;56.10
1686;DHT22;840;47.980;7.830;2023-06-14T05:38:33;17.40;55.90
1686;DHT22;840;47.980;7.830;2023-06-14T05:41:00;17.40;56.20
1686;DHT22;840;47.980;7.830;2023-06-14T05:43:28;17.40;56.20
1686;DHT22;840;47.980;7.830;2023-06-14T05:45:54;17.50;56.20
1686;DHT22;840;47.980;7.830;2023-06-14T05:48:21;17.60;55.30
1686;DHT22;840;47.980;7.830;2023-06-14T05:50:48;17.60;55.60
1686;DHT22;840;47.980;7.830;2023-06-14T05:53:15;17.70;55.70
1686;DHT22;840;47.980;7.830;2023-06-14T05:55:41;17.70;56.10
1686;DHT22;840;47.980;7.830;2023-06-14T05:58:08;17.80;55.90
1686;DHT22;840;47.980;7.830;2023-06-14T06:00:37;17.80;55.80
1686;DHT22;840;47.980;7.830;2023-06-14T06:03:04;17.80;56.80
1686;DHT22;840;47.980;7.830;2023-06-14T06:05:34;17.90;57.10
1686;DHT22;840;47.980;7.830;2023-06-14T06:08:01;18.00;57.60
1686;DHT22;840;47.980;7.830;2023-06-14T06:10:28;18.10;56.70
1686;DHT22;840;47.980;7.830;2023-06-14T06:12:55;18.20;56.50
1686;DHT22;840;47.980;7.830;2023-06-14T06:15:22;18.30;55.90
1686;DHT22;840;47.980;7.830;2023-06-14T06:17:50;18.40;56.50
1686;DHT22;840;47.980;7.830;2023-06-14T06:20:17;18.50;56.00
1686;DHT22;840;47.980;7.830;2023-06-14T06:22:44;18.50;56.00
1686;DHT22;840;47.980;7.830;2023-06-14T06:25:11;18.60;56.70
1686;DHT22;840;47.980;7.830;2023-06-14T06:27:40;18.60;57.20
1686;DHT22;840;47.980;7.830;2023-06-14T06:30:07;18.60;57.70
1686;DHT22;840;47.980;7.830;2023-06-14T06:32:34;18.60;57.20
1686;DHT22;840;47.980;7.830;2023-06-14T06:35:03;18.40;57.10
1686;DHT22;840;47.980;7.830;2023-06-14T06:37:31;18.40;57.70
1686;DHT22;840;47.980;7.830;2023-06-14T06:39:58;18.40;57.90
1686;DHT22;840;47.980;7.830;2023-06-14T06:42:25;18.50;57.90
1686;DHT22;840;47.980;7.830;2023-06-14T06:44:51;18.50;58.30
1686;DHT22;840;47.980;7.830;2023-06-14T06:47:18;18.60;57.60
1686;DHT22;840;47.980;7.830;2023-06-14T06:49:45;18.50;58.00
1686;DHT22;840;47.980;7.830;2023-06-14T06:52:13;18.50;58.40
1686;DHT22;840;47.980;7.830;2023-06-14T06:54:40;18.40;58.30
1686;DHT22;840;47.980;7.830;2023-06-14T06:57:07;18.40;58.80
1686;DHT22;840;47.980;7.830;2023-06-14T06:59:34;18.50;58.70
1686;DHT22;840;47.980;7.830;2023-06-14T07:02:01;18.50;57.80
1686;DHT22;840;47.980;7.830;2023-06-14T07:04:27;18.60;58.70
1686;DHT22;840;47.980;7.830;2023-06-14T07:06:54;18.70;58.30
1686;DHT22;840;47.980;7.830;2023-06-14T07:09:22;18.60;58.80
1686;DHT22;840;47.980;7.830;2023-06-14T07:11:50;18.70;59.50
1686;DHT22;840;47.980;7.830;2023-06-14T07:14:17;18.80;58.70
1686;DHT22;840;47.980;7.830;2023-06-14T07:16:44;18.90;59.20
1686;DHT22;840;47.980;7.830;2023-06-14T07:19:12;19.10;59.00
1686;DHT22;840;47.980;7.830;2023-06-14T07:21:38;19.10;59.00
1686;DHT22;840;47.980;7.830;2023-06-14T07:24:05;19.20;58.00
1686;DHT22;840;47.980;7.830;2023-06-14T07:26:34;19.20;57.20
1686;DHT22;840;47.980;7.830;2023-06-14T07:29:02;19.20;57.30
1686;DHT22;840;47.980;7.830;2023-06-14T07:31:28;19.30;57.90
1686;DHT22;840;47.980;7.830;2023-06-14T07:33:55;19.30;57.40
1686;DHT22;840;47.980;7.830;2023-06-14T07:36:22;19.30;57.00
1686;DHT22;840;47.980;7.830;2023-06-14T07:38:49;19.40;56.20
1686;DHT22;840;47.980;7.830;2023-06-14T07:41:16;19.40;55.80
1686;DHT22;840;47.980;7.830;2023-06-14T07:43:44;19.40;54.70
1686;DHT22;840;47.980;7.830;2023-06-14T07:46:11;19.50;53.80
1686;DHT22;840;47.980;7.830;2023-06-14T07:48:38;19.50;55.20
1686;DHT22;840;47.980;7.830;2023-06-14T07:51:04;19.70;56.00
1686;DHT22;840;47.980;7.830;2023-06-14T07:53:31;19.80;56.00
1686;DHT22;840;47.980;7.830;2023-06-14T07:55:59;19.90;54.80
1686;DHT22;840;47.980;7.830;2023-06-14T07:58:26;20.00;54.50
1686;DHT22;840;47.980;7.830;2023-06-14T08:00:54;20.20;55.20
1686;DHT22;840;47.980;7.830;2023-06-14T08:03:21;20.30;54.90
1686;DHT22;840;47.980;7.830;2023-06-14T08:05:49;20.50;55.30
1686;DHT22;840;47.980;7.830;2023-06-14T08:08:16;20.60;57.20
1686;DHT22;840;47.980;7.830;2023-06-14T08:10:43;20.70;57.60
1686;DHT22;840;47.980;7.830;2023-06-14T08:13:10;20.80;57.40
1686;DHT22;840;47.980;7.830;2023-06-14T08:15:37;20.80;56.60
1686;DHT22;840;47.980;7.830;2023-06-14T08:18:05;20.90;55.90
1686;DHT22;840;47.980;7.830;2023-06-14T08:20:32;20.90;55.50
1686;DHT22;840;47.980;7.830;2023-06-14T08:23:01;20.80;55.80
1686;DHT22;840;47.980;7.830;2023-06-14T08:25:29;20.80;57.00
1686;DHT22;840;47.980;7.830;2023-06-14T08:27:56;20.90;57.80
1686;DHT22;840;47.980;7.830;2023-06-14T08:30:22;20.90;58.40
1686;DHT22;840;47.980;7.830;2023-06-14T08:32:50;20.90;58.90
1686;DHT22;840;47.980;7.830;2023-06-14T08:35:18;21.00;59.70
1686;DHT22;840;47.980;7.830;2023-06-14T08:37:45;21.10;59.80
1686;DHT22;840;47.980;7.830;2023-06-14T08:40:18;21.10;59.10
1686;DHT22;840;47.980;7.830;2023-06-14T08:42:48;21.20;58.70
1686;DHT22;840;47.980;7.830;2023-06-14T08:45:16;21.30;59.70
1686;DHT22;840;47.980;7.830;2023-06-14T08:47:44;21.30;59.80
1686;DHT22;840;47.980;7.830;2023-06-14T08:50:11;21.30;60.10
1686;DHT22;840;47.980;7.830;2023-06-14T08:52:45;21.40;59.70
1686;DHT22;840;47.980;7.830;2023-06-14T08:55:16;21.40;58.90
1686;DHT22;840;47.980;7.830;2023-06-14T08:57:46;21.50;59.00
1686;DHT22;840;47.980;7.830;2023-06-14T09:00:15;21.50;59.40
1686;DHT22;840;47.980;7.830;2023-06-14T09:02:42;21.60;60.70
1686;DHT22;840;47.980;7.830;2023-06-14T09:05:10;21.70;59.70
1686;DHT22;840;47.980;7.830;2023-06-14T09:07:38;21.70;60.60
1686;DHT22;840;47.980;7.830;2023-06-14T09:10:09;21.80;60.80
1686;DHT22;840;47.980;7.830;2023-06-14T09:12:36;22.00;59.00
1686;DHT22;840;47.980;7.830;2023-06-14T09:15:04;22.10;59.00
1686;DHT22;840;47.980;7.830;2023-06-14T09:17:32;22.20;59.20
1686;DHT22;840;47.980;7.830;2023-06-14T09:19:59;22.20;58.60
1686;DHT22;840;47.980;7.830;2023-06-14T09:22:27;22.30;57.80
1686;DHT22;840;47.980;7.830;2023-06-14T09:24:56;22.40;58.00
1686;DHT22;840;47.980;7.830;2023-06-14T09:27:25;22.50;57.40
1686;DHT22;840;47.980;7.830;2023-06-14T09:29:52;22.60;56.60
1686;DHT22;840;47.980;7.830;2023-06-14T09:32:19;22.70;55.80
1686;DHT22;840;47.980;7.830;2023-06-14T09:34:47;22.70;56.20
1686;DHT22;840;47.980;7.830;2023-06-14T09:37:27;22.80;55.80
1686;DHT22;840;47.980;7.830;2023-06-14T09:39:54;22.90;55.60
1686;DHT22;840;47.980;7.830;2023-06-14T09:42:21;23.00;54.90
1686;DHT22;840;47.980;7.830;2023-06-14T09:44:50;23.00;54.30
1686;DHT22;840;47.980;7.830;2023-06-14T09:47:18;23.00;53.60
1686;DHT22;840;47.980;7.830;2023-06-14T09:49:45;23.10;53.60
1686;DHT22;840;47.980;7.830;2023-06-14T09:52:14;23.10;53.10
1686;DHT22;840;47.980;7.830;2023-06-14T09:54:42;23.20;53.60
1686;DHT22;840;47.980;7.830;2023-06-14T09:57:12;23.30;54.20
1686;DHT22;840;47.980;7.830;2023-06-14T09:59:42;23.40;53.00
1686;DHT22;840;47.980;7.830;2023-06-14T10:02:24;23.50;53.10
1686;DHT22;840;47.980;7.830;2023-06-14T10:04:56;23.60;52.10
1686;DHT22;840;47.980;7.830;2023-06-14T10:07:26;23.70;51.90
1686;DHT22;840;47.980;7.830;2023-06-14T10:09:55;23.60;51.30
1686;DHT22;840;47.980;7.830;2023-06-14T10:12:25;23.60;51.10
1686;DHT22;840;47.980;7.830;2023-06-14T10:14:52;23.60;51.40
1686;DHT22;840;47.980;7.830;2023-06-14T10:17:26;23.70;50.70
1686;DHT22;840;47.980;7.830;2023-06-14T10:19:58;23.80;51.30
1686;DHT22;840;47.980;7.830;2023-06-14T10:22:47;23.90;48.70
1686;DHT22;840;47.980;7.830;2023-06-14T10:25:26;24.00;51.10
1686;DHT22;840;47.980;7.830;2023-06-14T10:28:02;24.00;50.30
1686;DHT22;840;47.980;7.830;2023-06-14T10:30:29;24.10;49.80
1686;DHT22;840;47.980;7.830;2023-06-14T10:33:07;24.10;50.00
1686;DHT22;840;47.980;7.830;2023-06-14T10:35:35;24.20;51.10
1686;DHT22;840;47.980;7.830;2023-06-14T10:38:09;24.30;51.60
1686;DHT22;840;47.980;7.830;2023-06-14T10:40:36;24.30;50.70
1686;DHT22;840;47.980;7.830;2023-06-14T10:43:21;24.40;50.70
1686;DHT22;840;47.980;7.830;2023-06-14T10:46:16;24.50;49.50
1686;DHT22;840;47.980;7.830;2023-06-14T10:48:45;24.60;48.50
1686;DHT22;840;47.980;7.830;2023-06-14T10:51:18;24.60;47.70
1686;DHT22;840;47.980;7.830;2023-06-14T10:53:46;24.70;47.40
1686;DHT22;840;47.980;7.830;2023-06-14T10:56:24;24.60;46.60
1686;DHT22;840;47.980;7.830;2023-06-14T10:58:53;24.60;47.00
1686;DHT22;840;47.980;7.830;2023-06-14T11:01:35;24.60;46.30
1686;DHT22;840;47.980;7.830;2023-06-14T11:04:09;24.60;46.80
1686;DHT22;840;47.980;7.830;2023-06-14T11:06:54;24.70;47.30
1686;DHT22;840;47.980;7.830;2023-06-14T11:09:51;24.80;47.10
1686;DHT22;840;47.980;7.830;2023-06-14T11:12:23;24.80;46.60
1686;DHT22;840;47.980;7.830;2023-06-14T11:14:51;24.90;46.50
1686;DHT22;840;47.980;7.830;2023-06-14T11:17:18;24.80;46.70
1686;DHT22;840;47.980;7.830;2023-06-14T11:19:46;24.80;47.30
1686;DHT22;840;47.980;7.830;2023-06-14T11:22:13;24.90;47.00
1686;DHT22;840;47.980;7.830;2023-06-14T11:24:42;24.90;46.60
1686;DHT22;840;47.980;7.830;2023-06-14T11:27:09;25.00;47.50
1686;DHT22;840;47.980;7.830;2023-06-14T11:29:36;25.20;47.40
1686;DHT22;840;47.980;7.830;2023-06-14T11:32:07;25.30;47.00
1686;DHT22;840;47.980;7.830;2023-06-14T11:34:49;25.40;46.60
1686;DHT22;840;47.980;7.830;2023-06-14T11:37:17;25.40;45.60
1686;DHT22;840;47.980;7.830;2023-06-14T11:39:44;25.40;45.50
1686;DHT22;840;47.980;7.830;2023-06-14T11:42:13;25.30;44.90
1686;DHT22;840;47.980;7.830;2023-06-14T11:44:40;25.40;46.30
1686;DHT22;840;47.980;7.830;2023-06-14T11:47:07;25.50;46.10
1686;DHT22;840;47.980;7.830;2023-06-14T11:49:35;25.50;46.40
1686;DHT22;840;47.980;7.830;2023-06-14T11:52:04;25.50;46.20
1686;DHT22;840;47.980;7.830;2023-06-14T11:54:32;25.50;46.80
1686;DHT22;840;47.980;7.830;2023-06-14T11:56:59;25.40;47.60
1686;DHT22;840;47.980;7.830;2023-06-14T11:59:26;25.40;47.30
1686;DHT22;840;47.980;7.830;2023-06-14T12:01:53;25.40;47.10
1686;DHT22;840;47.980;7.830;2023-06-14T12:04:23;25.60;46.10
1686;DHT22;840;47.980;7.830;2023-06-14T12:06:51;25.70;44.80
1686;DHT22;840;47.980;7.830;2023-06-14T12:09:22;25.70;45.50
1686;DHT22;840;47.980;7.830;2023-06-14T12:11:51;25.80;44.40
1686;DHT22;840;47.980;7.830;2023-06-14T12:14:28;26.00;44.90
1686;DHT22;840;47.980;7.830;2023-06-14T12:17:04;26.10;45.10
1686;DHT22;840;47.980;7.830;2023-06-14T12:19:31;26.30;44.40
1686;DHT22;840;47.980;7.830;2023-06-14T12:21:59;26.30;44.90
1686;DHT22;840;47.980;7.830;2023-06-14T12:24:32;26.40;44.00
1686;DHT22;840;47.980;7.830;2023-06-14T12:26:58;26.60;43.70
1686;DHT22;840;47.980;7.830;2023-06-14T12:29:28;26.80;43.30
1686;DHT22;840;47.980;7.830;2023-06-14T12:31:55;26.90;43.10
1686;DHT22;840;47.980;7.830;2023-06-14T12:34:23;27.00;42.40
1686;DHT22;840;47.980;7.830;2023-06-14T12:36:50;27.00;43.10
1686;DHT22;840;47.980;7.830;2023-06-14T12:39:18;27.10;42.90
1686;DHT22;840;47.980;7.830;2023-06-14T12:41:47;27.30;42.00
1686;DHT22;840;47.980;7.830;2023-06-14T12:44:14;27.30;42.20
1686;DHT22;840;47.980;7.830;2023-06-14T12:46:42;27.20;41.60
1686;DHT22;840;47.980;7.830;2023-06-14T12:49:10;27.20;42.70
1686;DHT22;840;47.980;7.830;2023-06-14T12:51:37;27.50;42.70
1686;DHT22;840;47.980;7.830;2023-06-14T12:54:04;27.70;41.40
1686;DHT22;840;47.980;7.830;2023-06-14T12:56:31;27.70;41.40
1686;DHT22;840;47.980;7.830;2023-06-14T12:58:59;27.90;41.20
1686;DHT22;840;47.980;7.830;2023-06-14T13:01:26;27.90;40.80
1686;DHT22;840;47.980;7.830;2023-06-14T13:03:53;27.90;41.50
1686;DHT22;840;47.980;7.830;2023-06-14T13:06:20;28.30;41.70
1686;DHT22;840;47.980;7.830;2023-06-14T13:08:47;28.50;40.60
1686;DHT22;840;47.980;7.830;2023-06-14T13:11:14;28.60;40.30
1686;DHT22;840;47.980;7.830;2023-06-14T13:13:41;28.80;40.10
1686;DHT22;840;47.980;7.830;2023-06-14T13:16:10;29.00;41.00
1686;DHT22;840;47.980;7.830;2023-06-14T13:18:38;29.20;39.50
1686;DHT22;840;47.980;7.830;2023-06-14T13:21:05;29.20;39.00
1686;DHT22;840;47.980;7.830;2023-06-14T13:23:32;29.20;39.60
1686;DHT22;840;47.980;7.830;2023-06-14T13:25:59;29.20;39.80
1686;DHT22;840;47.980;7.830;2023-06-14T13:28:26;29.30;39.80
1686;DHT22;840;47.980;7.830;2023-06-14T13:30:53;29.20;39.80
1686;DHT22;840;47.980;7.830;2023-06-14T13:33:22;29.20;39.60
1686;DHT22;840;47.980;7.830;2023-06-14T13:35:49;29.20;38.70
1686;DHT22;840;47.980;7.830;2023-06-14T13:38:18;29.00;39.20
1686;DHT22;840;47.980;7.830;2023-06-14T13:40:45;29.00;39.40
1686;DHT22;840;47.980;7.830;2023-06-14T13:43:12;28.90;39.50
1686;DHT22;840;47.980;7.830;2023-06-14T13:45:38;28.90;39.30
1686;DHT22;840;47.980;7.830;2023-06-14T13:48:05;29.10;38.80
1686;DHT22;840;47.980;7.830;2023-06-14T13:50:34;29.30;38.90
1686;DHT22;840;47.980;7.830;2023-06-14T13:53:00;29.50;38.00
1686;DHT22;840;47.980;7.830;2023-06-14T13:55:27;29.20;38.30
1686;DHT22;840;47.980;7.830;2023-06-14T13:57:54;29.30;38.80
1686;DHT22;840;47.980;7.830;2023-06-14T14:00:22;29.60;38.60
1686;DHT22;840;47.980;7.830;2023-06-14T14:02:49;29.90;38.60
1686;DHT22;840;47.980;7.830;2023-06-14T14:05:16;29.60;37.80
1686;DHT22;840;47.980;7.830;2023-06-14T14:07:45;29.60;38.60
1686;DHT22;840;47.980;7.830;2023-06-14T14:10:12;29.80;37.70
1686;DHT22;840;47.980;7.830;2023-06-14T14:12:39;29.80;37.80
1686;DHT22;840;47.980;7.830;2023-06-14T14:15:06;29.90;37.80
1686;DHT22;840;47.980;7.830;2023-06-14T14:17:38;30.00;37.90
1686;DHT22;840;47.980;7.830;2023-06-14T14:20:05;30.20;37.40
1686;DHT22;840;47.980;7.830;2023-06-14T14:22:32;30.20;36.90
1686;DHT22;840;47.980;7.830;2023-06-14T14:25:01;29.90;37.20
1686;DHT22;840;47.980;7.830;2023-06-14T14:27:28;29.70;37.00
1686;DHT22;840;47.980;7.830;2023-06-14T14:29:54;29.80;37.80
1686;DHT22;840;47.980;7.830;2023-06-14T14:32:21;30.10;36.90
1686;DHT22;840;47.980;7.830;2023-06-14T14:34:48;30.10;36.80
1686;DHT22;840;47.980;7.830;2023-06-14T14:37:14;30.20;36.60
1686;DHT22;840;47.980;7.830;2023-06-14T14:39:43;30.10;36.50
1686;DHT22;840;47.980;7.830;2023-06-14T14:42:12;30.10;36.10
1686;DHT22;840;47.980;7.830;2023-06-14T14:44:39;30.00;36.50
1686;DHT22;840;47.980;7.830;2023-06-14T14:47:06;29.90;36.80
1686;DHT22;840;47.980;7.830;2023-06-14T14:49:33;29.90;36.90
1686;DHT22;840;47.980;7.830;2023-06-14T14:51:59;30.10;36.00
1686;DHT22;840;47.980;7.830;2023-06-14T14:54:26;30.10;36.40
1686;DHT22;840;47.980;7.830;2023-06-14T14:56:54;30.20;36.80
1686;DHT22;840;47.980;7.830;2023-06-14T14:59:23;30.00;36.20
1686;DHT22;840;47.980;7.830;2023-06-14T15:01:50;29.60;36.50
1686;DHT22;840;47.980;7.830;2023-06-14T15:04:17;29.60;37.40
1686;DHT22;840;47.980;7.830;2023-06-14T15:06:44;29.70;37.30
1686;DHT22;840;47.980;7.830;2023-06-14T15:09:12;29.80;37.00
1686;DHT22;840;47.980;7.830;2023-06-14T15:11:38;29.60;37.00
1686;DHT22;840;47.980;7.830;2023-06-14T15:14:05;29.40;37.70
1686;DHT22;840;47.980;7.830;2023-06-14T15:16:33;29.30;37.20
1686;DHT22;840;47.980;7.830;2023-06-14T15:19:00;29.30;38.10
1686;DHT22;840;47.980;7.830;2023-06-14T15:21:26;29.50;38.10
1686;DHT22;840;47.980;7.830;2023-06-14T15:23:53;29.80;38.30
1686;DHT22;840;47.980;7.830;2023-06-14T15:26:20;30.10;37.00
1686;DHT22;840;47.980;7.830;2023-06-14T15:28:49;30.20;37.10
1686;DHT22;840;47.980;7.830;2023-06-14T15:31:16;29.90;37.00
1686;DHT22;840;47.980;7.830;2023-06-14T15:33:45;29.70;36.70
1686;DHT22;840;47.980;7.830;2023-06-14T15:36:12;29.50;37.00
1686;DHT22;840;47.980;7.830;2023-06-14T15:38:39;29.20;37.50
1686;DHT22;840;47.980;7.830;2023-06-14T15:41:05;29.30;37.90
1686;DHT22;840;47.980;7.830;2023-06-14T15:43:33;29.60;37.20
1686;DHT22;840;47.980;7.830;2023-06-14T15:45:59;29.40;37.00
1686;DHT22;840;47.980;7.830;2023-06-14T15:48:26;29.50;37.50
1686;DHT22;840;47.980;7.830;2023-06-14T15:50:54;29.60;36.50
1686;DHT22;840;47.980;7.830;2023-06-14T15:53:21;29.60;37.20
1686;DHT22;840;47.980;7.830;2023-06-14T15:55:48;29.70;37.40
1686;DHT22;840;47.980;7.830;2023-06-14T15:58:15;29.90;37.00
1686;DHT22;840;47.980;7.830;2023-06-14T16:00:42;30.10;36.90
1686;DHT22;840;47.980;7.830;2023-06-14T16:03:09;30.20;35.80
1686;DHT22;840;47.980;7.830;2023-06-14T16:05:35;29.90;35.20
1686;DHT22;840;47.980;7.830;2023-06-14T16:08:04;29.40;36.40
1686;DHT22;840;47.980;7.830;2023-06-14T16:10:31;29.40;37.00
1686;DHT22;840;47.980;7.830;2023-06-14T16:12:58;29.50;37.10
1686;DHT22;840;47.980;7.830;2023-06-14T16:15:25;29.50;36.60
1686;DHT22;840;47.980;7.830;2023-06-14T16:17:52;29.60;37.20
1686;DHT22;840;47.980;7.830;2023-06-14T16:20:20;29.70;36.40
1686;DHT22;840;47.980;7.830;2023-06-14T16:22:46;29.80;36.70